TAF for LFQQ provided by aerobaticsweb.org
Current time: Monday, 25 Jan, 2021, 17:56 UTC
(This may take a minute, please be patient)


The most recent TAF forecast from LFQQ in our system was generated at
2021/01/25 18:21
The forecast is:
LFQQ 2021/01/25 18:21
TAF LFQQ 251700Z 2518/2624 27010KT 9999 SCT030
BECMG 2614/2617 20010KT
TEMPO 2621/2624 3000 RASN OVC014



access provided by Dr. Guenther Eichhorn at aerobaticsweb.org